Time;durP1;ratioP1;P1;durP2;ratioP2;P2;SDS_P1;SDS_P2;PMS_P1;PMS_P2;Temp;Humidity;BMP_temperature;BMP_pressure;BME280_temperature;BME280_humidity;BME280_pressure;Samples;Min_cycle;Max_cycle;Signal;HPM_P1;HPM_P2
2023/07/06 00:00:53;;;;;;;24.10;16.27;;;13.50;99.90;;;;;;5031954;28;20045;-64
2023/07/06 00:03:19;;;;;;;23.60;15.68;;;13.40;99.90;;;;;;5031945;28;20438;-64
2023/07/06 00:05:45;;;;;;;23.67;15.50;;;13.50;99.90;;;;;;5033267;28;20029;-64
2023/07/06 00:08:12;;;;;;;21.33;16.10;;;13.50;99.90;;;;;;5031752;28;20025;-64
2023/07/06 00:10:39;;;;;;;26.40;16.67;;;13.50;99.90;;;;;;5032686;28;20025;-64
2023/07/06 00:13:05;;;;;;;28.77;18.35;;;13.50;99.90;;;;;;5033115;28;20075;-64
2023/07/06 00:15:33;;;;;;;28.65;18.70;;;13.40;99.90;;;;;;5033288;28;20028;-64
2023/07/06 00:18:02;;;;;;;25.83;17.40;;;13.40;99.90;;;;;;5032880;28;20021;-64
2023/07/06 00:20:29;;;;;;;25.45;18.70;;;13.40;99.90;;;;;;5033022;28;20479;-64
2023/07/06 00:22:55;;;;;;;26.13;18.08;;;13.40;99.90;;;;;;5032944;28;20083;-64
2023/07/06 00:25:21;;;;;;;24.17;17.05;;;13.40;99.90;;;;;;5033154;28;20387;-63
2023/07/06 00:27:47;;;;;;;24.48;16.23;;;13.40;99.90;;;;;;5031729;28;20026;-64
2023/07/06 00:30:17;;;;;;;23.10;15.25;;;13.40;99.90;;;;;;5032801;28;20030;-63
2023/07/06 00:32:43;;;;;;;18.77;13.32;;;13.40;99.90;;;;;;5032882;28;20030;-63
2023/07/06 00:35:10;;;;;;;19.02;11.95;;;13.40;99.90;;;;;;5032829;28;20386;-64
2023/07/06 00:37:38;;;;;;;18.10;12.00;;;13.40;99.90;;;;;;5032962;28;20021;-64
2023/07/06 00:40:08;;;;;;;17.83;10.82;;;13.30;99.90;;;;;;5032990;28;20034;-64
2023/07/06 00:42:35;;;;;;;16.65;10.65;;;13.30;99.90;;;;;;5032987;28;20526;-64
2023/07/06 00:45:01;;;;;;;16.90;10.48;;;13.30;99.90;;;;;;5032779;28;20104;-64
2023/07/06 00:47:34;;;;;;;13.57;9.55;;;13.20;99.90;;;;;;5032749;28;20391;-63
2023/07/06 00:50:07;;;;;;;15.93;10.35;;;13.20;99.90;;;;;;5031369;28;20171;-64
2023/07/06 00:52:34;;;;;;;15.52;9.85;;;13.20;99.90;;;;;;5032631;28;20042;-64
2023/07/06 00:55:01;;;;;;;13.02;9.40;;;13.20;99.90;;;;;;5032725;28;20407;-64
2023/07/06 00:57:28;;;;;;;13.32;9.35;;;13.00;99.90;;;;;;5032697;28;20033;-64
2023/07/06 00:59:56;;;;;;;12.90;9.48;;;13.10;99.90;;;;;;5036140;28;20022;-64
2023/07/06 01:02:21;;;;;;;15.10;9.65;;;13.10;99.90;;;;;;5036356;28;20033;-64
2023/07/06 01:04:48;;;;;;;13.63;9.93;;;13.20;99.90;;;;;;5036118;28;20056;-64
2023/07/06 01:07:19;;;;;;;14.23;9.60;;;13.20;99.90;;;;;;5036115;28;20029;-64
2023/07/06 01:09:45;;;;;;;16.83;9.82;;;12.70;99.90;;;;;;5034650;28;20079;-64
2023/07/06 01:12:12;;;;;;;16.02;9.70;;;12.90;99.90;;;;;;5035906;28;20032;-64
2023/07/06 01:14:39;;;;;;;18.20;9.70;;;13.20;99.90;;;;;;5035930;28;20033;-64
2023/07/06 01:17:14;;;;;;;14.25;9.18;;;13.20;99.90;;;;;;5035943;28;20428;-64
2023/07/06 01:19:55;;;;;;;16.10;9.57;;;13.10;99.90;;;;;;5036076;28;20026;-64
2023/07/06 01:22:41;;;;;;;11.80;8.32;;;;;;;;;;5035924;28;20025;-63
2023/07/06 01:25:47;;;;;;;18.08;9.32;;;13.20;99.90;;;;;;5035686;28;20502;-64
2023/07/06 01:31:38;;;;;;;15.05;9.38;;;13.10;99.90;;;;;;5070665;28;20930;-64
2023/07/06 01:34:30;;;;;;;14.52;9.30;;;13.10;99.90;;;;;;5070683;28;20033;-64
2023/07/06 01:37:09;;;;;;;14.73;8.77;;;13.00;99.90;;;;;;5070334;28;20028;-64
2023/07/06 01:39:35;;;;;;;16.05;9.27;;;13.00;99.90;;;;;;5069203;28;20024;-64
2023/07/06 01:44:46;;;;;;;15.43;9.40;;;12.90;99.90;;;;;;5111200;27;20380;-63
2023/07/06 01:47:14;;;;;;;14.52;9.05;;;12.90;99.90;;;;;;5111093;28;20107;-63
2023/07/06 01:49:40;;;;;;;12.25;8.43;;;12.80;99.90;;;;;;5111138;28;20560;-63
2023/07/06 01:52:38;;;;;;;15.07;9.38;;;12.80;99.90;;;;;;5111098;28;20055;-63
2023/07/06 01:55:28;;;;;;;14.32;8.55;;;12.70;99.90;;;;;;5111059;28;20073;-63
2023/07/06 01:58:24;;;;;;;15.07;8.68;;;12.70;99.90;;;;;;5110808;28;20389;-63
2023/07/06 02:00:55;;;;;;;12.35;8.35;;;12.60;99.90;;;;;;5109966;28;20060;-63
2023/07/06 02:03:24;;;;;;;11.30;8.32;;;12.50;99.90;;;;;;5109594;28;20028;-63
2023/07/06 02:05:51;;;;;;;16.27;8.70;;;12.40;99.90;;;;;;5109561;28;20020;-63
2023/07/06 02:08:17;;;;;;;13.77;8.52;;;12.30;99.90;;;;;;5109804;28;20453;-63
2023/07/06 02:10:43;;;;;;;9.40;7.55;;;12.20;99.90;;;;;;5110708;28;20091;-63
2023/07/06 02:13:09;;;;;;;12.88;8.48;;;12.10;99.90;;;;;;5110689;28;20035;-63
2023/07/06 02:15:34;;;;;;;18.98;9.30;;;12.10;99.90;;;;;;5110629;28;20028;-63
2023/07/06 02:18:01;;;;;;;11.95;7.93;;;12.00;99.90;;;;;;5110674;28;20484;-63
2023/07/06 02:20:27;;;;;;;11.15;7.65;;;12.00;99.90;;;;;;5110510;28;20508;-63
2023/07/06 02:22:53;;;;;;;14.88;8.93;;;11.30;99.90;;;;;;5109274;28;20028;-63
2023/07/06 02:25:20;;;;;;;17.88;8.75;;;11.80;99.90;;;;;;5110598;28;20027;-63
2023/07/06 02:27:46;;;;;;;10.38;7.82;;;11.80;99.90;;;;;;5109176;28;20200;-63
2023/07/06 02:30:12;;;;;;;10.50;7.50;;;12.30;99.90;;;;;;5110351;28;20020;-63
2023/07/06 02:32:39;;;;;;;13.57;8.75;;;11.70;99.90;;;;;;5110223;28;20031;-64
2023/07/06 02:35:06;;;;;;;15.73;9.00;;;11.80;99.90;;;;;;5110240;28;20020;-63
2023/07/06 02:37:32;;;;;;;11.82;8.77;;;11.60;99.90;;;;;;5110113;28;20115;-63
2023/07/06 02:39:58;;;;;;;10.98;8.82;;;11.60;99.90;;;;;;5110295;28;20102;-63
2023/07/06 02:42:24;;;;;;;13.65;9.25;;;11.40;99.90;;;;;;5109769;28;20458;-64
2023/07/06 02:44:50;;;;;;;17.02;10.65;;;11.70;99.90;;;;;;5110212;28;20051;-63
2023/07/06 02:47:15;;;;;;;20.27;11.32;;;11.60;99.90;;;;;;5110100;28;20063;-63
2023/07/06 02:49:41;;;;;;;15.82;10.20;;;11.80;99.90;;;;;;5109759;28;20108;-63
2023/07/06 02:52:07;;;;;;;15.75;9.90;;;12.30;99.90;;;;;;5109944;28;20024;-64
2023/07/06 02:54:32;;;;;;;13.90;9.85;;;11.80;99.90;;;;;;5104912;28;20066;-64
2023/07/06 02:57:00;;;;;;;17.13;10.90;;;11.80;99.90;;;;;;5096468;28;20024;-63
2023/07/06 02:59:26;;;;;;;17.60;9.93;;;;;;;;;;5096306;28;20060;-63
2023/07/06 03:01:52;;;;;;;12.80;9.23;;;11.50;99.90;;;;;;5096297;28;20028;-63
2023/07/06 03:04:17;;;;;;;15.77;9.75;;;11.50;99.90;;;;;;5095983;28;20024;-63
2023/07/06 03:06:45;;;;;;;13.00;9.02;;;11.50;99.90;;;;;;5094781;28;20020;-63
2023/07/06 03:09:11;;;;;;;12.90;8.60;;;11.40;99.90;;;;;;5096008;28;20583;-63
2023/07/06 03:11:37;;;;;;;14.65;8.65;;;11.40;99.90;;;;;;5094866;28;20032;-63
2023/07/06 03:14:03;;;;;;;12.88;8.88;;;11.40;99.90;;;;;;5095954;28;20385;-64
2023/07/06 03:16:38;;;;;;;13.40;9.52;;;11.40;99.90;;;;;;5096064;28;20028;-63
2023/07/06 03:19:04;;;;;;;11.43;8.20;;;11.30;99.90;;;;;;5096271;28;20028;-64
2023/07/06 03:21:29;;;;;;;12.60;8.57;;;11.30;99.90;;;;;;5095840;28;20035;-63
2023/07/06 03:23:55;;;;;;;13.82;8.93;;;11.30;99.90;;;;;;5095619;28;20367;-64
2023/07/06 03:26:21;;;;;;;14.50;8.50;;;11.50;99.90;;;;;;5095680;28;20025;-63
2023/07/06 03:28:47;;;;;;;13.38;9.05;;;11.50;99.90;;;;;;5095652;28;20439;-63
2023/07/06 03:31:14;;;;;;;12.38;9.13;;;11.30;99.90;;;;;;5095737;28;20024;-63
2023/07/06 03:33:41;;;;;;;16.05;9.52;;;11.20;99.90;;;;;;5095716;28;20032;-64
2023/07/06 03:36:07;;;;;;;11.45;8.18;;;11.50;99.90;;;;;;5095414;28;20093;-64
2023/07/06 03:38:35;;;;;;;12.95;8.60;;;11.80;99.90;;;;;;5095674;28;20035;-64
2023/07/06 03:41:04;;;;;;;12.20;8.30;;;11.40;99.90;;;;;;5095418;28;20028;-63
2023/07/06 03:43:30;;;;;;;14.93;9.07;;;11.30;99.90;;;;;;5093949;28;20056;-63
2023/07/06 03:45:56;;;;;;;11.73;8.70;;;11.20;99.90;;;;;;5095359;28;20047;-63
2023/07/06 03:48:22;;;;;;;14.05;9.68;;;11.30;99.90;;;;;;5093975;28;20016;-63
2023/07/06 03:50:52;;;;;;;15.55;10.07;;;11.60;99.90;;;;;;5094023;28;20028;-63
2023/07/06 03:53:18;;;;;;;15.32;8.90;;;11.60;99.90;;;;;;5095354;28;20027;-63
2023/07/06 03:55:44;;;;;;;14.48;10.20;;;11.40;99.90;;;;;;5095061;28;20020;-63
2023/07/06 03:58:10;;;;;;;18.50;10.75;;;11.50;99.90;;;;;;5093586;28;20028;-64
2023/07/06 04:00:36;;;;;;;14.38;9.77;;;11.40;99.90;;;;;;5094085;28;20032;-64
2023/07/06 04:03:06;;;;;;;16.23;9.98;;;11.50;99.90;;;;;;5094998;28;20497;-63
2023/07/06 04:05:37;;;;;;;18.98;11.65;;;11.50;99.90;;;;;;5094619;28;20028;-63
2023/07/06 04:08:06;;;;;;;15.43;11.38;;;11.70;99.90;;;;;;5093273;28;20104;-63
2023/07/06 04:10:33;;;;;;;17.38;11.15;;;11.70;99.90;;;;;;5093548;28;20059;-66
2023/07/06 04:12:59;;;;;;;20.52;11.77;;;11.70;99.90;;;;;;5095085;28;20034;-63
2023/07/06 04:15:25;;;;;;;16.35;11.23;;;11.80;99.90;;;;;;5094671;28;20031;-63
2023/07/06 04:17:52;;;;;;;15.43;9.85;;;11.90;99.90;;;;;;5094672;28;20024;-63
2023/07/06 04:20:21;;;;;;;20.38;10.98;;;12.00;99.90;;;;;;5094474;28;20056;-63
2023/07/06 04:22:48;;;;;;;17.77;10.50;;;12.10;99.90;;;;;;5094514;28;20032;-63
2023/07/06 04:25:15;;;;;;;13.73;9.65;;;12.10;99.90;;;;;;5093330;28;20470;-64
2023/07/06 04:27:42;;;;;;;18.35;11.05;;;12.20;99.90;;;;;;5094410;28;20024;-63
2023/07/06 04:30:10;;;;;;;15.32;9.35;;;12.30;99.90;;;;;;5094481;28;20035;-63
2023/07/06 04:32:36;;;;;;;20.13;10.13;;;12.50;99.90;;;;;;5094549;28;20054;-64
2023/07/06 04:35:02;;;;;;;15.02;9.95;;;12.70;99.90;;;;;;5094613;28;20063;-63
2023/07/06 04:37:28;;;;;;;15.48;9.25;;;12.80;99.90;;;;;;5094230;28;20016;-63
2023/07/06 04:39:53;;;;;;;15.55;8.57;;;13.10;99.90;;;;;;5094232;28;20047;-63
2023/07/06 04:42:19;;;;;;;13.48;7.05;;;13.50;99.90;;;;;;5094059;28;20363;-64
2023/07/06 04:44:45;;;;;;;11.80;6.57;;;;;;;;;;5093989;28;20435;-63
2023/07/06 04:47:11;;;;;;;16.05;6.47;;;14.80;99.90;;;;;;5094154;28;20030;-64
2023/07/06 04:49:37;;;;;;;12.32;5.85;;;15.50;57.40;;;;;;5094119;28;20024;-63
2023/07/06 04:52:04;;;;;;;11.07;5.25;;;16.30;3.30;;;;;;5094418;28;20077;-64
2023/07/06 04:54:30;;;;;;;8.95;4.97;;;17.10;1.00;;;;;;5094018;28;20028;-64
2023/07/06 04:56:56;;;;;;;10.43;5.30;;;17.40;1.00;;;;;;5093928;28;20406;-63
2023/07/06 04:59:22;;;;;;;9.35;5.00;;;17.90;1.00;;;;;;5093882;28;20033;-63
2023/07/06 05:01:47;;;;;;;10.80;5.60;;;17.20;1.00;;;;;;5094060;28;20024;-64
2023/07/06 05:04:13;;;;;;;9.82;5.82;;;16.70;1.00;;;;;;5093695;28;20375;-63
2023/07/06 05:06:38;;;;;;;11.43;5.72;;;16.30;1.00;;;;;;5093828;28;20081;-64
2023/07/06 05:09:04;;;;;;;7.72;4.85;;;16.50;1.00;;;;;;5093667;28;20046;-63
2023/07/06 05:11:30;;;;;;;7.78;4.97;;;17.20;1.00;;;;;;5093853;28;20037;-63
2023/07/06 05:13:57;;;;;;;10.88;5.18;;;17.30;1.00;;;;;;5093847;28;20035;-64
2023/07/06 05:16:23;;;;;;;9.45;4.93;;;17.60;1.00;;;;;;5093648;28;20028;-63
2023/07/06 05:18:49;;;;;;;9.85;4.70;;;17.40;1.00;;;;;;5093619;28;20032;-63
2023/07/06 05:21:14;;;;;;;9.27;4.50;;;17.50;1.00;;;;;;5093608;28;20080;-64
2023/07/06 05:23:40;;;;;;;12.40;4.70;;;17.50;1.00;;;;;;5093723;28;20020;-63
2023/07/06 05:26:07;;;;;;;7.25;4.20;;;17.90;99.90;;;;;;5093760;28;20162;-63
2023/07/06 05:28:32;;;;;;;9.68;4.55;;;18.30;99.90;;;;;;5093551;28;20068;-64
2023/07/06 05:31:02;;;;;;;8.80;4.10;;;17.90;99.90;;;;;;5093369;28;20099;-63
2023/07/06 05:33:27;;;;;;;9.18;4.75;;;18.10;99.90;;;;;;5093136;28;20020;-63
2023/07/06 05:35:53;;;;;;;6.43;4.50;;;18.10;99.90;;;;;;5093567;28;20028;-63
2023/07/06 05:38:19;;;;;;;11.40;4.00;;;18.20;99.90;;;;;;5093107;28;20370;-63
2023/07/06 05:40:45;;;;;;;12.60;4.13;;;18.30;99.90;;;;;;5093374;28;20055;-63
2023/07/06 05:43:10;;;;;;;9.30;3.80;;;18.30;99.90;;;;;;5093099;28;20145;-63
2023/07/06 05:45:37;;;;;;;10.52;5.13;;;18.70;99.90;;;;;;5093307;28;20028;-64
2023/07/06 05:48:03;;;;;;;10.35;4.35;;;18.70;99.90;;;;;;5093518;28;20052;-64
2023/07/06 05:50:28;;;;;;;10.82;4.00;;;18.80;1.00;;;;;;5092012;28;20394;-64
2023/07/06 05:52:54;;;;;;;11.70;5.80;;;18.40;99.90;;;;;;5093266;28;20034;-63
2023/07/06 05:55:19;;;;;;;10.30;4.43;;;18.80;99.90;;;;;;5093325;28;20354;-64
2023/07/06 05:57:46;;;;;;;9.77;4.00;;;19.20;1.00;;;;;;5093260;28;20036;-63
2023/07/06 06:00:15;;;;;;;10.63;4.05;;;19.10;1.00;;;;;;5093040;28;20077;-64
2023/07/06 06:02:43;;;;;;;9.75;3.63;;;19.00;1.00;;;;;;5092013;28;20024;-63
2023/07/06 06:05:08;;;;;;;10.88;4.43;;;18.80;1.00;;;;;;5093082;28;20020;-64
2023/07/06 06:07:34;;;;;;;14.40;4.13;;;18.10;99.90;;;;;;5091615;28;20048;-63
2023/07/06 06:10:03;;;;;;;10.55;3.63;;;18.70;99.90;;;;;;5092685;28;20020;-63
2023/07/06 06:12:31;;;;;;;8.77;3.63;;;18.60;12.30;;;;;;5093073;28;20069;-64
2023/07/06 06:14:57;;;;;;;8.40;4.05;;;18.60;1.00;;;;;;5088699;28;20094;-63
2023/07/06 06:17:27;;;;;;;8.43;3.70;;;18.70;1.00;;;;;;5092622;28;20062;-64
2023/07/06 06:19:52;;;;;;;11.38;3.53;;;18.40;99.90;;;;;;5085392;28;20074;-64
2023/07/06 06:22:19;;;;;;;9.88;3.38;;;19.40;1.00;;;;;;5053105;28;20108;-64
2023/07/06 06:24:45;;;;;;;9.13;3.60;;;19.90;1.00;;;;;;5069866;28;20527;-64
2023/07/06 06:27:14;;;;;;;10.88;3.60;;;19.00;99.90;;;;;;5072022;28;20036;-64
2023/07/06 06:29:42;;;;;;;10.40;3.92;;;18.80;99.90;;;;;;5073419;28;20043;-64
2023/07/06 06:32:09;;;;;;;9.40;3.42;;;19.10;99.90;;;;;;5075874;28;20029;-64
2023/07/06 06:34:35;;;;;;;5.93;3.40;;;19.70;99.90;;;;;;5076338;28;20036;-64
2023/07/06 06:37:03;;;;;;;10.20;3.40;;;19.80;1.00;;;;;;5075476;28;20043;-63
2023/07/06 06:39:29;;;;;;;10.10;3.25;;;18.80;99.90;;;;;;5075174;28;20078;-64
2023/07/06 06:41:55;;;;;;;8.70;3.95;;;18.00;99.90;;;;;;5076220;28;20029;-63
2023/07/06 06:44:20;;;;;;;9.20;3.80;;;18.20;99.90;;;;;;5075732;28;20128;-64
2023/07/06 06:46:47;;;;;;;10.68;3.75;;;17.90;99.90;;;;;;5075228;28;20115;-64
2023/07/06 06:49:13;;;;;;;7.82;3.50;;;18.10;99.90;;;;;;5076287;28;20024;-64
2023/07/06 06:51:39;;;;;;;11.80;4.03;;;17.90;99.90;;;;;;5072893;28;20079;-64
2023/07/06 06:54:04;;;;;;;9.05;3.55;;;17.60;99.90;;;;;;5056523;28;20029;-64
2023/07/06 06:56:31;;;;;;;8.10;3.40;;;18.30;99.90;;;;;;5055933;28;20040;-64
2023/07/06 06:58:57;;;;;;;8.18;3.58;;;19.10;1.00;;;;;;5055878;28;20072;-64
2023/07/06 07:01:23;;;;;;;10.77;3.63;;;19.20;99.90;;;;;;5056099;28;20028;-64
2023/07/06 07:03:48;;;;;;;8.23;3.20;;;19.50;29.40;;;;;;5071238;28;20033;-64
2023/07/06 07:06:14;;;;;;;5.63;2.83;;;20.30;99.90;;;;;;5064972;28;20024;-64
2023/07/06 07:08:49;;;;;;;9.27;3.50;;;20.70;99.90;;;;;;5063272;28;20394;-64
2023/07/06 07:11:20;;;;;;;10.65;3.50;;;20.80;1.00;;;;;;5055686;28;20091;-64
2023/07/06 07:13:48;;;;;;;8.60;3.50;;;21.00;1.00;;;;;;5055788;28;20028;-64
2023/07/06 07:16:15;;;;;;;9.93;3.17;;;20.60;99.90;;;;;;5061120;28;20037;-64
2023/07/06 07:18:43;;;;;;;7.25;3.25;;;20.70;99.90;;;;;;5069154;28;20473;-64
2023/07/06 07:21:10;;;;;;;7.75;3.22;;;21.30;1.00;;;;;;5075530;28;20028;-63
2023/07/06 07:23:41;;;;;;;8.18;3.17;;;21.90;99.90;;;;;;5071797;28;20028;-63
2023/07/06 07:26:07;;;;;;;8.85;3.40;;;20.80;1.00;;;;;;5066458;28;20478;-63
2023/07/06 07:28:33;;;;;;;9.65;3.03;;;20.60;99.90;;;;;;5069123;28;20531;-63
2023/07/06 07:30:59;;;;;;;10.40;3.13;;;20.70;99.90;;;;;;5075294;28;20021;-63
2023/07/06 07:33:27;;;;;;;7.63;3.10;;;20.00;1.00;;;;;;5075270;28;20024;-63
2023/07/06 07:35:52;;;;;;;8.88;3.38;;;20.40;99.90;;;;;;5075473;28;20105;-63
2023/07/06 07:38:19;;;;;;;10.05;3.20;;;20.20;99.90;;;;;;5074034;28;20056;-63
2023/07/06 07:43:32;;;;;;;7.38;3.40;;;20.70;1.00;;;;;;5070720;28;20444;-64
2023/07/06 07:46:01;;;;;;;9.50;3.50;;;21.10;1.00;;;;;;5067660;28;20513;-66
2023/07/06 07:48:27;;;;;;;8.40;3.05;;;21.30;99.90;;;;;;5065274;28;20052;-64
2023/07/06 07:50:56;;;;;;;11.93;3.50;;;21.90;1.00;;;;;;5050395;28;20148;-64
2023/07/06 07:53:24;;;;;;;9.90;3.17;;;21.80;99.90;;;;;;5082585;28;20064;-65
2023/07/06 07:55:50;;;;;;;9.02;3.28;;;22.40;99.90;;;;;;5050379;28;20483;-64
2023/07/06 07:58:16;;;;;;;7.03;2.95;;;21.80;99.90;;;;;;5050375;28;20025;-64
2023/07/06 08:00:57;;;;;;;13.73;3.28;;;22.00;1.00;;;;;;5070154;28;20033;-64
2023/07/06 08:03:25;;;;;;;8.35;2.90;;;22.60;2.80;;;;;;5050116;28;20025;-64
2023/07/06 08:05:53;;;;;;;6.95;2.63;;;23.50;99.90;;;;;;5049212;28;20076;-64
2023/07/06 08:08:18;;;;;;;7.53;2.80;;;23.70;99.90;;;;;;5057494;28;20060;-64
2023/07/06 08:10:45;;;;;;;10.00;2.70;;;23.10;99.90;;;;;;5068308;28;20021;-64
2023/07/06 08:13:11;;;;;;;7.90;2.95;;;22.40;99.90;;;;;;5062011;28;20037;-64
2023/07/06 08:15:38;;;;;;;8.15;2.70;;;22.10;99.90;;;;;;5067889;28;20384;-64
2023/07/06 08:18:06;;;;;;;5.28;2.60;;;21.90;1.00;;;;;;5058603;28;20493;-64
2023/07/06 08:20:32;;;;;;;8.77;2.83;;;22.00;1.00;;;;;;5067439;28;20071;-63
2023/07/06 08:23:01;;;;;;;7.28;2.90;;;22.50;99.90;;;;;;5069447;28;20025;-63
2023/07/06 08:25:28;;;;;;;8.57;2.85;;;22.50;99.90;;;;;;5061920;28;20491;-63
2023/07/06 08:27:56;;;;;;;7.78;2.63;;;21.90;1.00;;;;;;5069696;28;20050;-63
2023/07/06 08:30:22;;;;;;;7.45;2.65;;;21.80;94.00;;;;;;5069587;28;20055;-64
2023/07/06 08:32:48;;;;;;;6.47;2.40;;;22.50;1.00;;;;;;5069821;28;20052;-64
2023/07/06 08:35:16;;;;;;;10.02;3.00;;;22.60;99.90;;;;;;5063171;28;20127;-64
2023/07/06 08:37:42;;;;;;;7.40;2.58;;;22.90;1.00;;;;;;5057928;28;20503;-64
2023/07/06 08:40:16;;;;;;;6.90;2.80;;;24.20;99.90;;;;;;5069364;28;20025;-64
2023/07/06 08:42:46;;;;;;;8.48;2.95;;;23.40;99.90;;;;;;5072288;28;20052;-64
2023/07/06 08:45:19;;;;;;;8.52;2.80;;;22.90;99.90;;;;;;5081070;28;20117;-64
2023/07/06 08:47:47;;;;;;;8.55;2.70;;;23.50;99.90;;;;;;5065348;28;20425;-64
2023/07/06 08:50:15;;;;;;;6.68;2.70;;;23.30;99.90;;;;;;5069226;28;20017;-63
2023/07/06 08:52:42;;;;;;;6.82;2.70;;;23.10;77.50;;;;;;5067256;28;20406;-64
2023/07/06 08:55:13;;;;;;;6.03;2.78;;;22.90;1.00;;;;;;5055728;28;20032;-63
2023/07/06 08:57:39;;;;;;;5.93;2.00;;;23.30;1.00;;;;;;5042612;28;20044;-63
2023/07/06 09:00:21;;;;;;;4.72;2.03;;;23.60;1.00;;;;;;5052705;28;20039;-63
2023/07/06 09:02:49;;;;;;;5.57;2.80;;;23.10;1.00;;;;;;5055102;28;20033;-63
2023/07/06 09:05:16;;;;;;;6.18;2.95;;;23.40;1.00;;;;;;5055663;28;20052;-63
2023/07/06 09:07:45;;;;;;;4.18;1.90;;;23.20;1.00;;;;;;5053148;28;20386;-63
2023/07/06 09:10:16;;;;;;;4.25;2.00;;;23.70;1.00;;;;;;5050035;28;20033;-64
2023/07/06 09:12:42;;;;;;;4.75;1.80;;;24.00;1.00;;;;;;5051851;28;20025;-65
2023/07/06 09:15:08;;;;;;;6.32;2.10;;;24.10;1.00;;;;;;5054970;28;20036;-63
2023/07/06 09:17:44;;;;;;;6.45;2.08;;;23.60;1.00;;;;;;5044985;28;20041;-63
2023/07/06 09:20:12;;;;;;;6.60;1.85;;;23.10;1.00;;;;;;5051585;28;20033;-64
2023/07/06 09:22:41;;;;;;;5.88;2.15;;;22.70;1.00;;;;;;5054299;28;20041;-64
2023/07/06 09:25:15;;;;;;;6.05;2.60;;;23.80;99.90;;;;;;5075313;28;20428;-64
2023/07/06 09:27:43;;;;;;;4.43;1.80;;;23.70;99.90;;;;;;5074417;28;20504;-64
2023/07/06 09:30:23;;;;;;;7.20;2.17;;;24.30;99.90;;;;;;5074829;28;20025;-64
2023/07/06 09:32:53;;;;;;;6.55;2.42;;;24.50;99.90;;;;;;5040120;28;20491;-65
2023/07/06 09:35:20;;;;;;;7.35;2.42;;;24.00;1.00;;;;;;5055041;28;20029;-64
2023/07/06 09:37:47;;;;;;;5.55;2.10;;;23.90;1.00;;;;;;5032134;28;20037;-64
2023/07/06 09:40:15;;;;;;;6.68;2.13;;;23.10;1.00;;;;;;5026619;28;20057;-64
2023/07/06 09:42:41;;;;;;;5.28;2.03;;;23.10;1.00;;;;;;5038891;28;20127;-64
2023/07/06 09:45:29;;;;;;;5.65;2.10;;;23.60;1.00;;;;;;5037811;28;20107;-64
2023/07/06 09:47:58;;;;;;;5.63;2.00;;;24.20;1.00;;;;;;5026119;28;20133;-64
2023/07/06 09:50:35;;;;;;;7.22;2.25;;;24.10;1.00;;;;;;5031182;28;20025;-64
2023/07/06 09:53:05;;;;;;;5.72;2.00;;;24.90;1.00;;;;;;5034781;28;20122;-64
2023/07/06 09:55:31;;;;;;;7.95;2.08;;;24.30;1.00;;;;;;5029245;28;20510;-64
2023/07/06 09:57:58;;;;;;;4.10;1.90;;;23.70;1.00;;;;;;5016293;28;20056;-64
2023/07/06 10:00:33;;;;;;;8.55;1.90;;;24.50;1.00;;;;;;5016074;28;20057;-65
2023/07/06 10:03:26;;;;;;;3.67;1.95;;;24.90;1.00;;;;;;5013428;28;20526;-64
2023/07/06 10:06:00;;;;;;;5.68;2.30;;;23.50;1.00;;;;;;5018910;28;20116;-64
2023/07/06 10:11:12;;;;;;;5.95;1.85;;;22.20;1.00;;;;;;5069657;28;20180;-65
2023/07/06 10:13:49;;;;;;;5.55;2.42;;;22.10;63.10;;;;;;5069894;28;20032;-64
2023/07/06 10:16:42;;;;;;;6.75;2.20;;;22.50;29.90;;;;;;5065032;28;20055;-65
2023/07/06 10:19:25;;;;;;;4.85;1.95;;;22.50;1.00;;;;;;5071201;28;20075;-65
2023/07/06 10:22:31;;;;;;;4.65;1.80;;;22.20;1.00;;;;;;5070032;28;20486;-64
2023/07/06 10:25:22;;;;;;;7.72;2.30;;;21.90;1.00;;;;;;5055477;28;20120;-65
2023/07/06 10:27:56;;;;;;;6.25;1.90;;;22.50;1.00;;;;;;5069380;28;20108;-64
2023/07/06 10:30:31;;;;;;;4.88;2.22;;;22.70;1.00;;;;;;5059526;28;20037;-64
2023/07/06 10:32:58;;;;;;;8.65;2.40;;;22.40;1.00;;;;;;5067495;28;20029;-64
2023/07/06 10:35:28;;;;;;;5.75;2.42;;;23.70;1.00;;;;;;5054374;28;20037;-64
2023/07/06 10:37:54;;;;;;;4.75;1.98;;;24.20;1.00;;;;;;5076572;28;20083;-64
2023/07/06 10:40:24;;;;;;;5.57;2.10;;;22.80;1.00;;;;;;5064348;28;20033;-64
2023/07/06 10:43:11;;;;;;;6.68;2.42;;;22.00;1.00;;;;;;5069746;28;20036;-66
2023/07/06 10:45:45;;;;;;;7.53;2.72;;;21.90;15.10;;;;;;5059588;28;20108;-65
2023/07/06 10:48:15;;;;;;;8.40;2.15;;;22.10;99.90;;;;;;5069545;28;20074;-66
2023/07/06 10:50:49;;;;;;;7.03;2.60;;;22.10;51.90;;;;;;5069124;28;20083;-65
2023/07/06 10:53:33;;;;;;;6.85;2.58;;;22.30;1.00;;;;;;5060332;28;20033;-65
2023/07/06 10:58:56;;;;;;;5.78;2.97;;;22.00;1.00;;;;;;5065636;28;20402;-65
2023/07/06 11:01:29;;;;;;;10.97;5.13;;;22.50;14.60;;;;;;5050741;28;20049;-66
2023/07/06 11:03:54;;;;;;;8.05;3.55;;;22.60;56.60;;;;;;5044127;28;20278;-64
2023/07/06 11:09:17;;;;;;;5.57;2.20;;;22.70;1.00;;;;;;5110540;27;20486;-64
2023/07/06 11:12:04;;;;;;;6.95;2.63;;;22.20;1.00;;;;;;5110211;28;20024;-64
2023/07/06 11:17:26;;;;;;;11.20;2.60;;;21.90;1.00;;;;;;5064454;28;20399;-64
2023/07/06 11:19:57;;;;;;;10.32;2.80;;;22.10;1.00;;;;;;5046794;28;20090;-64
2023/07/06 11:22:25;;;;;;;5.30;2.47;;;21.60;1.00;;;;;;5042748;28;20033;-64
2023/07/06 11:24:59;;;;;;;5.57;2.28;;;20.80;1.00;;;;;;5044302;28;20025;-65
2023/07/06 11:27:30;;;;;;;6.85;2.30;;;22.40;18.30;;;;;;5045886;28;20029;-64
2023/07/06 11:30:04;;;;;;;5.18;1.90;;;23.40;1.00;;;;;;5046505;28;20075;-64
2023/07/06 11:32:47;;;;;;;5.80;1.98;;;23.20;1.00;;;;;;5047091;28;20167;-64
2023/07/06 11:35:38;;;;;;;4.68;1.83;;;23.30;1.00;;;;;;5045678;28;20048;-66
2023/07/06 11:38:27;;;;;;;8.30;2.17;;;23.60;1.00;;;;;;5045763;28;20037;-64
2023/07/06 11:41:14;;;;;;;3.42;1.58;;;24.00;1.00;;;;;;5045984;28;20025;-64
2023/07/06 11:44:06;;;;;;;2.92;1.73;;;23.30;1.00;;;;;;5047817;28;20075;-64
2023/07/06 11:46:45;;;;;;;5.57;1.88;;;23.30;1.00;;;;;;5046305;28;20028;-64
2023/07/06 11:49:48;;;;;;;4.28;2.00;;;23.00;1.00;;;;;;5048994;28;20052;-64
2023/07/06 11:52:19;;;;;;;5.45;1.73;;;22.90;1.00;;;;;;5042962;28;20339;-65
2023/07/06 11:54:51;;;;;;;5.25;1.85;;;22.90;1.00;;;;;;5049487;28;20030;-66
2023/07/06 11:57:25;;;;;;;4.90;2.03;;;23.80;1.00;;;;;;5042824;28;20566;-64
2023/07/06 12:00:13;;;;;;;4.90;1.90;;;23.60;1.00;;;;;;5055194;28;20021;-65
2023/07/06 12:02:40;;;;;;;3.67;1.75;;;24.20;1.00;;;;;;5055383;28;20095;-63
2023/07/06 12:05:23;;;;;;;4.05;1.70;;;24.20;1.00;;;;;;5049044;28;20369;-63
2023/07/06 12:07:57;;;;;;;6.75;1.88;;;24.20;99.90;;;;;;5045857;28;20033;-65
2023/07/06 12:10:23;;;;;;;5.18;1.90;;;24.10;1.00;;;;;;5049004;28;20025;-63
2023/07/06 12:12:52;;;;;;;4.90;2.00;;;23.40;1.00;;;;;;5049691;28;20481;-64
2023/07/06 12:15:21;;;;;;;4.13;2.00;;;23.00;1.00;;;;;;5048229;28;20049;-64
2023/07/06 12:17:52;;;;;;;4.97;1.92;;;23.00;1.00;;;;;;5047086;28;20090;-65
2023/07/06 12:20:21;;;;;;;4.13;1.80;;;22.90;28.30;;;;;;5048218;28;20029;-63
2023/07/06 12:22:52;;;;;;;5.88;2.25;;;23.20;20.40;;;;;;5047873;28;20041;-63
2023/07/06 12:25:19;;;;;;;5.32;2.13;;;23.30;58.20;;;;;;5048548;28;20101;-64
2023/07/06 12:27:45;;;;;;;3.47;1.88;;;23.00;99.90;;;;;;5039296;28;20029;-63
2023/07/06 12:30:14;;;;;;;4.68;2.08;;;23.00;99.90;;;;;;5035285;28;20041;-64
2023/07/06 12:32:43;;;;;;;7.13;2.10;;;22.70;99.90;;;;;;5034345;28;20040;-66
2023/07/06 12:35:11;;;;;;;4.45;1.85;;;22.60;99.90;;;;;;5032493;28;20037;-67
2023/07/06 12:37:41;;;;;;;6.20;2.47;;;22.90;1.00;;;;;;5034459;28;20029;-66
2023/07/06 12:40:19;;;;;;;5.55;2.00;;;23.00;1.00;;;;;;5034888;28;20033;-64
2023/07/06 12:42:45;;;;;;;5.22;1.90;;;22.90;99.90;;;;;;5021247;28;20034;-65
2023/07/06 12:45:22;;;;;;;6.65;2.13;;;23.00;99.90;;;;;;5028206;28;20040;-64
2023/07/06 12:47:56;;;;;;;8.55;2.20;;;22.70;1.00;;;;;;5032330;28;20083;-64
2023/07/06 12:50:29;;;;;;;5.30;2.10;;;22.70;1.00;;;;;;5033555;28;20698;-65
2023/07/06 12:53:05;;;;;;;6.80;2.25;;;22.50;1.00;;;;;;5033874;28;20025;-65
2023/07/06 12:55:32;;;;;;;3.60;1.92;;;22.90;1.00;;;;;;5035334;28;20033;-64
2023/07/06 12:58:14;;;;;;;8.10;2.00;;;23.10;52.50;;;;;;5029728;28;20107;-64
2023/07/06 13:00:39;;;;;;;5.32;2.17;;;23.10;1.00;;;;;;5032581;28;20156;-64
2023/07/06 13:03:10;;;;;;;6.43;2.15;;;22.90;1.00;;;;;;5033998;28;20551;-67
2023/07/06 13:05:35;;;;;;;5.82;1.70;;;22.60;1.00;;;;;;5030244;28;20108;-64
2023/07/06 13:08:08;;;;;;;7.18;2.25;;;22.30;1.00;;;;;;5034262;28;20124;-64
2023/07/06 13:10:36;;;;;;;7.03;1.90;;;21.90;1.00;;;;;;5035279;28;20021;-64
2023/07/06 13:13:07;;;;;;;4.05;2.20;;;22.20;1.00;;;;;;5034231;28;20053;-64
2023/07/06 13:15:39;;;;;;;6.57;2.13;;;22.50;1.00;;;;;;5031764;28;20053;-64
2023/07/06 13:18:14;;;;;;;3.83;1.98;;;22.90;1.00;;;;;;5034925;28;20123;-64